sensor_id;sensor_type;location;lat;lon;timestamp;P1;P2;P0
59546;PMS5003;45368;55.002;-1.592;2023-05-07T00:00:53;11;9;
59546;PMS5003;45368;55.002;-1.592;2023-05-07T00:03:21;15;13;
59546;PMS5003;45368;55.002;-1.592;2023-05-07T00:05:48;16;14;
59546;PMS5003;45368;55.002;-1.592;2023-05-07T00:08:15;15;13;
59546;PMS5003;45368;55.002;-1.592;2023-05-07T00:10:43;12;11;
59546;PMS5003;45368;55.002;-1.592;2023-05-07T00:13:10;24;19;
59546;PMS5003;45368;55.002;-1.592;2023-05-07T00:15:37;19;16;
59546;PMS5003;45368;55.002;-1.592;2023-05-07T00:18:04;12;12;
59546;PMS5003;45368;55.002;-1.592;2023-05-07T00:20:32;13;12;
59546;PMS5003;45368;55.002;-1.592;2023-05-07T00:22:59;16;16;
59546;PMS5003;45368;55.002;-1.592;2023-05-07T00:25:26;15;14;
59546;PMS5003;45368;55.002;-1.592;2023-05-07T00:27:54;17;14;
59546;PMS5003;45368;55.002;-1.592;2023-05-07T00:30:21;21;16;
59546;PMS5003;45368;55.002;-1.592;2023-05-07T00:32:48;15;14;
59546;PMS5003;45368;55.002;-1.592;2023-05-07T00:35:16;18;16;
59546;PMS5003;45368;55.002;-1.592;2023-05-07T00:37:44;18;17;
59546;PMS5003;45368;55.002;-1.592;2023-05-07T00:40:11;18;17;
59546;PMS5003;45368;55.002;-1.592;2023-05-07T00:42:38;14;12;
59546;PMS5003;45368;55.002;-1.592;2023-05-07T00:45:06;22;18;
59546;PMS5003;45368;55.002;-1.592;2023-05-07T00:47:34;19;15;
59546;PMS5003;45368;55.002;-1.592;2023-05-07T00:50:01;15;14;
59546;PMS5003;45368;55.002;-1.592;2023-05-07T00:52:29;17;16;
59546;PMS5003;45368;55.002;-1.592;2023-05-07T00:54:56;16;15;
59546;PMS5003;45368;55.002;-1.592;2023-05-07T00:57:24;16;16;
59546;PMS5003;45368;55.002;-1.592;2023-05-07T00:59:51;20;16;
59546;PMS5003;45368;55.002;-1.592;2023-05-07T01:02:18;20;18;
59546;PMS5003;45368;55.002;-1.592;2023-05-07T01:04:45;20;19;
59546;PMS5003;45368;55.002;-1.592;2023-05-07T01:07:13;27;22;
59546;PMS5003;45368;55.002;-1.592;2023-05-07T01:09:40;22;18;
59546;PMS5003;45368;55.002;-1.592;2023-05-07T01:12:07;22;20;
59546;PMS5003;45368;55.002;-1.592;2023-05-07T01:14:35;26;23;
59546;PMS5003;45368;55.002;-1.592;2023-05-07T01:17:02;22;19;
59546;PMS5003;45368;55.002;-1.592;2023-05-07T01:19:30;24;20;
59546;PMS5003;45368;55.002;-1.592;2023-05-07T01:22:01;22;20;
59546;PMS5003;45368;55.002;-1.592;2023-05-07T01:24:33;22;19;
59546;PMS5003;45368;55.002;-1.592;2023-05-07T01:27:03;35;27;
59546;PMS5003;45368;55.002;-1.592;2023-05-07T01:29:30;26;24;
59546;PMS5003;45368;55.002;-1.592;2023-05-07T01:31:59;24;21;
59546;PMS5003;45368;55.002;-1.592;2023-05-07T01:34:28;24;22;
59546;PMS5003;45368;55.002;-1.592;2023-05-07T01:36:59;25;22;
59546;PMS5003;45368;55.002;-1.592;2023-05-07T01:39:28;26;24;
59546;PMS5003;45368;55.002;-1.592;2023-05-07T01:41:57;23;21;
59546;PMS5003;45368;55.002;-1.592;2023-05-07T01:44:26;24;22;
59546;PMS5003;45368;55.002;-1.592;2023-05-07T01:46:54;22;20;
59546;PMS5003;45368;55.002;-1.592;2023-05-07T01:49:22;29;27;
59546;PMS5003;45368;55.002;-1.592;2023-05-07T01:51:50;29;26;
59546;PMS5003;45368;55.002;-1.592;2023-05-07T01:54:18;32;26;
59546;PMS5003;45368;55.002;-1.592;2023-05-07T01:56:45;26;24;
59546;PMS5003;45368;55.002;-1.592;2023-05-07T01:59:12;37;31;
59546;PMS5003;45368;55.002;-1.592;2023-05-07T02:01:39;33;29;
59546;PMS5003;45368;55.002;-1.592;2023-05-07T02:04:07;34;32;
59546;PMS5003;45368;55.002;-1.592;2023-05-07T02:06:34;40;34;
59546;PMS5003;45368;55.002;-1.592;2023-05-07T02:09:02;32;30;
59546;PMS5003;45368;55.002;-1.592;2023-05-07T02:11:29;29;27;
59546;PMS5003;45368;55.002;-1.592;2023-05-07T02:13:57;31;26;
59546;PMS5003;45368;55.002;-1.592;2023-05-07T02:16:24;35;33;
59546;PMS5003;45368;55.002;-1.592;2023-05-07T02:18:51;36;34;
59546;PMS5003;45368;55.002;-1.592;2023-05-07T02:21:19;38;35;
59546;PMS5003;45368;55.002;-1.592;2023-05-07T02:23:46;36;35;
59546;PMS5003;45368;55.002;-1.592;2023-05-07T02:26:13;33;30;
59546;PMS5003;45368;55.002;-1.592;2023-05-07T02:28:40;39;38;
59546;PMS5003;45368;55.002;-1.592;2023-05-07T02:31:08;34;34;
59546;PMS5003;45368;55.002;-1.592;2023-05-07T02:33:35;38;35;
59546;PMS5003;45368;55.002;-1.592;2023-05-07T02:36:06;35;33;
59546;PMS5003;45368;55.002;-1.592;2023-05-07T02:38:34;39;35;
59546;PMS5003;45368;55.002;-1.592;2023-05-07T02:41:01;38;33;
59546;PMS5003;45368;55.002;-1.592;2023-05-07T02:43:29;46;37;
59546;PMS5003;45368;55.002;-1.592;2023-05-07T02:46:00;42;39;
59546;PMS5003;45368;55.002;-1.592;2023-05-07T02:48:28;36;33;
59546;PMS5003;45368;55.002;-1.592;2023-05-07T02:50:56;40;34;
59546;PMS5003;45368;55.002;-1.592;2023-05-07T02:53:23;40;37;
59546;PMS5003;45368;55.002;-1.592;2023-05-07T02:55:52;44;40;
59546;PMS5003;45368;55.002;-1.592;2023-05-07T02:58:19;51;48;
59546;PMS5003;45368;55.002;-1.592;2023-05-07T03:00:46;40;36;
59546;PMS5003;45368;55.002;-1.592;2023-05-07T03:03:13;43;39;
59546;PMS5003;45368;55.002;-1.592;2023-05-07T03:05:41;47;43;
59546;PMS5003;45368;55.002;-1.592;2023-05-07T03:08:08;42;38;
59546;PMS5003;45368;55.002;-1.592;2023-05-07T03:10:36;52;43;
59546;PMS5003;45368;55.002;-1.592;2023-05-07T03:13:04;46;42;
59546;PMS5003;45368;55.002;-1.592;2023-05-07T03:15:31;44;41;
59546;PMS5003;45368;55.002;-1.592;2023-05-07T03:17:58;45;42;
59546;PMS5003;45368;55.002;-1.592;2023-05-07T03:20:26;51;43;
59546;PMS5003;45368;55.002;-1.592;2023-05-07T03:22:53;44;40;
59546;PMS5003;45368;55.002;-1.592;2023-05-07T03:25:20;51;46;
59546;PMS5003;45368;55.002;-1.592;2023-05-07T03:27:47;45;41;
59546;PMS5003;45368;55.002;-1.592;2023-05-07T03:30:15;47;41;
59546;PMS5003;45368;55.002;-1.592;2023-05-07T03:32:42;44;39;
59546;PMS5003;45368;55.002;-1.592;2023-05-07T03:35:10;54;47;
59546;PMS5003;45368;55.002;-1.592;2023-05-07T03:37:38;45;38;
59546;PMS5003;45368;55.002;-1.592;2023-05-07T03:40:05;41;38;
59546;PMS5003;45368;55.002;-1.592;2023-05-07T03:42:33;44;41;
59546;PMS5003;45368;55.002;-1.592;2023-05-07T03:45:00;42;36;
59546;PMS5003;45368;55.002;-1.592;2023-05-07T03:47:28;44;41;
59546;PMS5003;45368;55.002;-1.592;2023-05-07T03:49:56;50;45;
59546;PMS5003;45368;55.002;-1.592;2023-05-07T03:52:22;47;41;
59546;PMS5003;45368;55.002;-1.592;2023-05-07T03:54:50;39;36;
59546;PMS5003;45368;55.002;-1.592;2023-05-07T03:57:20;48;43;
59546;PMS5003;45368;55.002;-1.592;2023-05-07T03:59:46;40;36;
59546;PMS5003;45368;55.002;-1.592;2023-05-07T04:02:14;41;36;
59546;PMS5003;45368;55.002;-1.592;2023-05-07T04:04:41;49;41;
59546;PMS5003;45368;55.002;-1.592;2023-05-07T04:07:08;49;40;
59546;PMS5003;45368;55.002;-1.592;2023-05-07T04:09:36;47;41;
59546;PMS5003;45368;55.002;-1.592;2023-05-07T04:12:04;47;41;
59546;PMS5003;45368;55.002;-1.592;2023-05-07T04:14:31;44;39;
59546;PMS5003;45368;55.002;-1.592;2023-05-07T04:16:58;44;42;
59546;PMS5003;45368;55.002;-1.592;2023-05-07T04:19:25;51;43;
59546;PMS5003;45368;55.002;-1.592;2023-05-07T04:21:53;38;35;
59546;PMS5003;45368;55.002;-1.592;2023-05-07T04:24:20;37;33;
59546;PMS5003;45368;55.002;-1.592;2023-05-07T04:26:48;44;37;
59546;PMS5003;45368;55.002;-1.592;2023-05-07T04:29:15;45;39;
59546;PMS5003;45368;55.002;-1.592;2023-05-07T04:31:43;40;38;
59546;PMS5003;45368;55.002;-1.592;2023-05-07T04:34:10;43;37;
59546;PMS5003;45368;55.002;-1.592;2023-05-07T04:36:38;54;38;
59546;PMS5003;45368;55.002;-1.592;2023-05-07T04:39:05;40;35;
59546;PMS5003;45368;55.002;-1.592;2023-05-07T04:41:32;49;41;
59546;PMS5003;45368;55.002;-1.592;2023-05-07T04:43:59;42;39;
59546;PMS5003;45368;55.002;-1.592;2023-05-07T04:46:27;48;39;
59546;PMS5003;45368;55.002;-1.592;2023-05-07T04:48:54;42;40;
59546;PMS5003;45368;55.002;-1.592;2023-05-07T04:51:22;41;36;
59546;PMS5003;45368;55.002;-1.592;2023-05-07T04:53:49;37;35;
59546;PMS5003;45368;55.002;-1.592;2023-05-07T04:56:16;48;37;
59546;PMS5003;45368;55.002;-1.592;2023-05-07T04:58:43;38;31;
59546;PMS5003;45368;55.002;-1.592;2023-05-07T05:01:10;43;37;
59546;PMS5003;45368;55.002;-1.592;2023-05-07T05:03:38;50;44;
59546;PMS5003;45368;55.002;-1.592;2023-05-07T05:06:05;40;38;
59546;PMS5003;45368;55.002;-1.592;2023-05-07T05:08:32;40;34;
59546;PMS5003;45368;55.002;-1.592;2023-05-07T05:11:00;39;34;
59546;PMS5003;45368;55.002;-1.592;2023-05-07T05:13:27;44;37;
59546;PMS5003;45368;55.002;-1.592;2023-05-07T05:15:55;38;33;
59546;PMS5003;45368;55.002;-1.592;2023-05-07T05:18:23;42;36;
59546;PMS5003;45368;55.002;-1.592;2023-05-07T05:20:51;40;39;
59546;PMS5003;45368;55.002;-1.592;2023-05-07T05:23:19;35;29;
59546;PMS5003;45368;55.002;-1.592;2023-05-07T05:25:46;39;36;
59546;PMS5003;45368;55.002;-1.592;2023-05-07T05:28:13;37;30;
59546;PMS5003;45368;55.002;-1.592;2023-05-07T05:30:40;39;34;
59546;PMS5003;45368;55.002;-1.592;2023-05-07T05:33:08;30;25;
59546;PMS5003;45368;55.002;-1.592;2023-05-07T05:35:35;30;26;
59546;PMS5003;45368;55.002;-1.592;2023-05-07T05:38:02;27;25;
59546;PMS5003;45368;55.002;-1.592;2023-05-07T05:40:29;23;20;
59546;PMS5003;45368;55.002;-1.592;2023-05-07T05:42:57;27;22;
59546;PMS5003;45368;55.002;-1.592;2023-05-07T05:45:24;24;20;
59546;PMS5003;45368;55.002;-1.592;2023-05-07T05:47:51;16;13;
59546;PMS5003;45368;55.002;-1.592;2023-05-07T05:50:23;16;15;
59546;PMS5003;45368;55.002;-1.592;2023-05-07T05:52:51;20;19;
59546;PMS5003;45368;55.002;-1.592;2023-05-07T05:55:19;29;23;
59546;PMS5003;45368;55.002;-1.592;2023-05-07T05:57:47;23;21;
59546;PMS5003;45368;55.002;-1.592;2023-05-07T06:00:14;29;23;
59546;PMS5003;45368;55.002;-1.592;2023-05-07T06:02:42;22;18;
59546;PMS5003;45368;55.002;-1.592;2023-05-07T06:05:09;15;14;
59546;PMS5003;45368;55.002;-1.592;2023-05-07T06:07:36;18;14;
59546;PMS5003;45368;55.002;-1.592;2023-05-07T06:10:04;18;14;
59546;PMS5003;45368;55.002;-1.592;2023-05-07T06:12:33;12;11;
59546;PMS5003;45368;55.002;-1.592;2023-05-07T06:15:00;10;10;
59546;PMS5003;45368;55.002;-1.592;2023-05-07T06:17:27;11;10;
59546;PMS5003;45368;55.002;-1.592;2023-05-07T06:19:54;11;11;
59546;PMS5003;45368;55.002;-1.592;2023-05-07T06:22:21;8;7;
59546;PMS5003;45368;55.002;-1.592;2023-05-07T06:24:48;8;7;
59546;PMS5003;45368;55.002;-1.592;2023-05-07T06:27:16;9;9;
59546;PMS5003;45368;55.002;-1.592;2023-05-07T06:29:43;13;12;
59546;PMS5003;45368;55.002;-1.592;2023-05-07T06:32:10;11;9;
59546;PMS5003;45368;55.002;-1.592;2023-05-07T06:34:38;10;8;
59546;PMS5003;45368;55.002;-1.592;2023-05-07T06:37:06;14;13;
59546;PMS5003;45368;55.002;-1.592;2023-05-07T06:39:33;14;14;
59546;PMS5003;45368;55.002;-1.592;2023-05-07T06:42:01;14;13;
59546;PMS5003;45368;55.002;-1.592;2023-05-07T06:44:28;16;14;
59546;PMS5003;45368;55.002;-1.592;2023-05-07T06:46:55;16;13;
59546;PMS5003;45368;55.002;-1.592;2023-05-07T06:49:23;16;13;
59546;PMS5003;45368;55.002;-1.592;2023-05-07T06:51:50;18;16;
59546;PMS5003;45368;55.002;-1.592;2023-05-07T06:54:17;17;16;
59546;PMS5003;45368;55.002;-1.592;2023-05-07T06:56:44;20;19;
59546;PMS5003;45368;55.002;-1.592;2023-05-07T06:59:11;19;19;
59546;PMS5003;45368;55.002;-1.592;2023-05-07T07:01:38;22;22;
59546;PMS5003;45368;55.002;-1.592;2023-05-07T07:04:06;20;18;
59546;PMS5003;45368;55.002;-1.592;2023-05-07T07:06:33;18;18;
59546;PMS5003;45368;55.002;-1.592;2023-05-07T07:09:00;23;21;
59546;PMS5003;45368;55.002;-1.592;2023-05-07T07:11:28;19;18;
59546;PMS5003;45368;55.002;-1.592;2023-05-07T07:13:54;21;20;
59546;PMS5003;45368;55.002;-1.592;2023-05-07T07:16:22;30;22;
59546;PMS5003;45368;55.002;-1.592;2023-05-07T07:18:49;21;20;
59546;PMS5003;45368;55.002;-1.592;2023-05-07T07:21:16;22;20;
59546;PMS5003;45368;55.002;-1.592;2023-05-07T07:23:43;20;19;
59546;PMS5003;45368;55.002;-1.592;2023-05-07T07:26:10;24;20;
59546;PMS5003;45368;55.002;-1.592;2023-05-07T07:28:42;22;20;
59546;PMS5003;45368;55.002;-1.592;2023-05-07T07:31:10;20;18;
59546;PMS5003;45368;55.002;-1.592;2023-05-07T07:33:37;25;23;
59546;PMS5003;45368;55.002;-1.592;2023-05-07T07:36:05;19;17;
59546;PMS5003;45368;55.002;-1.592;2023-05-07T07:38:33;30;26;
59546;PMS5003;45368;55.002;-1.592;2023-05-07T07:41:00;25;23;
59546;PMS5003;45368;55.002;-1.592;2023-05-07T07:43:28;21;20;
59546;PMS5003;45368;55.002;-1.592;2023-05-07T07:45:55;16;15;
59546;PMS5003;45368;55.002;-1.592;2023-05-07T07:48:22;22;20;
59546;PMS5003;45368;55.002;-1.592;2023-05-07T07:50:50;19;19;
59546;PMS5003;45368;55.002;-1.592;2023-05-07T07:53:18;17;16;
59546;PMS5003;45368;55.002;-1.592;2023-05-07T07:55:46;20;18;
59546;PMS5003;45368;55.002;-1.592;2023-05-07T07:58:13;23;19;
59546;PMS5003;45368;55.002;-1.592;2023-05-07T08:00:41;25;22;
59546;PMS5003;45368;55.002;-1.592;2023-05-07T08:03:09;27;22;
59546;PMS5003;45368;55.002;-1.592;2023-05-07T08:05:36;21;20;
59546;PMS5003;45368;55.002;-1.592;2023-05-07T08:08:05;20;19;
59546;PMS5003;45368;55.002;-1.592;2023-05-07T08:10:36;21;18;
59546;PMS5003;45368;55.002;-1.592;2023-05-07T08:13:03;28;26;
59546;PMS5003;45368;55.002;-1.592;2023-05-07T08:15:31;24;21;
59546;PMS5003;45368;55.002;-1.592;2023-05-07T08:17:58;27;25;
59546;PMS5003;45368;55.002;-1.592;2023-05-07T08:20:26;21;19;
59546;PMS5003;45368;55.002;-1.592;2023-05-07T08:22:53;33;24;
59546;PMS5003;45368;55.002;-1.592;2023-05-07T08:25:21;20;18;
59546;PMS5003;45368;55.002;-1.592;2023-05-07T08:27:48;34;28;
59546;PMS5003;45368;55.002;-1.592;2023-05-07T08:30:16;26;24;
59546;PMS5003;45368;55.002;-1.592;2023-05-07T08:32:43;28;25;
59546;PMS5003;45368;55.002;-1.592;2023-05-07T08:35:10;21;19;
59546;PMS5003;45368;55.002;-1.592;2023-05-07T08:37:38;22;19;
59546;PMS5003;45368;55.002;-1.592;2023-05-07T08:40:06;23;22;
59546;PMS5003;45368;55.002;-1.592;2023-05-07T08:42:38;24;18;
59546;PMS5003;45368;55.002;-1.592;2023-05-07T08:45:08;22;20;
59546;PMS5003;45368;55.002;-1.592;2023-05-07T08:47:40;25;22;
59546;PMS5003;45368;55.002;-1.592;2023-05-07T08:50:09;30;28;
59546;PMS5003;45368;55.002;-1.592;2023-05-07T08:52:37;23;20;
59546;PMS5003;45368;55.002;-1.592;2023-05-07T08:55:06;22;20;
59546;PMS5003;45368;55.002;-1.592;2023-05-07T08:57:34;29;25;
59546;PMS5003;45368;55.002;-1.592;2023-05-07T09:00:07;26;23;
59546;PMS5003;45368;55.002;-1.592;2023-05-07T09:02:35;28;25;
59546;PMS5003;45368;55.002;-1.592;2023-05-07T09:05:03;24;22;
59546;PMS5003;45368;55.002;-1.592;2023-05-07T09:07:31;27;23;
59546;PMS5003;45368;55.002;-1.592;2023-05-07T09:10:00;23;22;
59546;PMS5003;45368;55.002;-1.592;2023-05-07T09:12:28;23;19;
59546;PMS5003;45368;55.002;-1.592;2023-05-07T09:14:55;24;22;
59546;PMS5003;45368;55.002;-1.592;2023-05-07T09:17:22;29;26;
59546;PMS5003;45368;55.002;-1.592;2023-05-07T09:19:49;22;20;
59546;PMS5003;45368;55.002;-1.592;2023-05-07T09:22:17;28;25;
59546;PMS5003;45368;55.002;-1.592;2023-05-07T09:24:47;28;22;
59546;PMS5003;45368;55.002;-1.592;2023-05-07T09:27:14;23;21;
59546;PMS5003;45368;55.002;-1.592;2023-05-07T09:29:41;26;22;
59546;PMS5003;45368;55.002;-1.592;2023-05-07T09:32:10;21;18;
59546;PMS5003;45368;55.002;-1.592;2023-05-07T09:34:37;19;18;
59546;PMS5003;45368;55.002;-1.592;2023-05-07T09:37:05;33;29;
59546;PMS5003;45368;55.002;-1.592;2023-05-07T09:39:40;27;23;
59546;PMS5003;45368;55.002;-1.592;2023-05-07T09:42:07;22;20;
59546;PMS5003;45368;55.002;-1.592;2023-05-07T09:44:34;24;21;
59546;PMS5003;45368;55.002;-1.592;2023-05-07T09:47:02;27;23;
59546;PMS5003;45368;55.002;-1.592;2023-05-07T09:49:33;22;20;
59546;PMS5003;45368;55.002;-1.592;2023-05-07T09:52:02;29;24;
59546;PMS5003;45368;55.002;-1.592;2023-05-07T09:54:30;24;22;
59546;PMS5003;45368;55.002;-1.592;2023-05-07T09:56:58;22;19;
59546;PMS5003;45368;55.002;-1.592;2023-05-07T09:59:25;19;18;
59546;PMS5003;45368;55.002;-1.592;2023-05-07T10:01:54;21;19;
59546;PMS5003;45368;55.002;-1.592;2023-05-07T10:04:24;19;18;
59546;PMS5003;45368;55.002;-1.592;2023-05-07T10:06:52;18;15;
59546;PMS5003;45368;55.002;-1.592;2023-05-07T10:09:25;19;18;
59546;PMS5003;45368;55.002;-1.592;2023-05-07T10:11:53;19;16;
59546;PMS5003;45368;55.002;-1.592;2023-05-07T10:14:21;17;16;
59546;PMS5003;45368;55.002;-1.592;2023-05-07T10:16:49;17;15;
59546;PMS5003;45368;55.002;-1.592;2023-05-07T10:19:19;20;19;
59546;PMS5003;45368;55.002;-1.592;2023-05-07T10:21:50;17;15;
59546;PMS5003;45368;55.002;-1.592;2023-05-07T10:24:31;13;12;
59546;PMS5003;45368;55.002;-1.592;2023-05-07T10:27:00;15;15;
59546;PMS5003;45368;55.002;-1.592;2023-05-07T10:29:37;13;13;
59546;PMS5003;45368;55.002;-1.592;2023-05-07T10:32:16;15;15;
59546;PMS5003;45368;55.002;-1.592;2023-05-07T10:34:56;19;17;
59546;PMS5003;45368;55.002;-1.592;2023-05-07T10:37:28;20;17;
59546;PMS5003;45368;55.002;-1.592;2023-05-07T10:39:56;16;15;
59546;PMS5003;45368;55.002;-1.592;2023-05-07T10:42:24;18;17;
59546;PMS5003;45368;55.002;-1.592;2023-05-07T10:44:52;18;17;
59546;PMS5003;45368;55.002;-1.592;2023-05-07T10:47:24;21;20;
59546;PMS5003;45368;55.002;-1.592;2023-05-07T10:50:23;16;14;
59546;PMS5003;45368;55.002;-1.592;2023-05-07T10:54:18;16;14;
59546;PMS5003;45368;55.002;-1.592;2023-05-07T10:56:47;17;15;
59546;PMS5003;45368;55.002;-1.592;2023-05-07T10:59:32;15;15;
59546;PMS5003;45368;55.002;-1.592;2023-05-07T11:02:01;21;18;
59546;PMS5003;45368;55.002;-1.592;2023-05-07T11:04:30;20;19;
59546;PMS5003;45368;55.002;-1.592;2023-05-07T11:07:30;17;17;
59546;PMS5003;45368;55.002;-1.592;2023-05-07T11:10:00;14;13;
59546;PMS5003;45368;55.002;-1.592;2023-05-07T11:12:47;16;15;
59546;PMS5003;45368;55.002;-1.592;2023-05-07T11:15:33;14;13;
59546;PMS5003;45368;55.002;-1.592;2023-05-07T11:18:03;14;13;
59546;PMS5003;45368;55.002;-1.592;2023-05-07T11:20:46;16;16;
59546;PMS5003;45368;55.002;-1.592;2023-05-07T11:24:20;13;12;
59546;PMS5003;45368;55.002;-1.592;2023-05-07T11:26:49;16;14;
59546;PMS5003;45368;55.002;-1.592;2023-05-07T11:29:17;18;16;
59546;PMS5003;45368;55.002;-1.592;2023-05-07T11:31:48;22;20;
59546;PMS5003;45368;55.002;-1.592;2023-05-07T11:34:20;24;19;
59546;PMS5003;45368;55.002;-1.592;2023-05-07T11:36:48;21;20;
59546;PMS5003;45368;55.002;-1.592;2023-05-07T11:39:23;20;19;
59546;PMS5003;45368;55.002;-1.592;2023-05-07T11:41:51;20;17;
59546;PMS5003;45368;55.002;-1.592;2023-05-07T11:44:18;18;18;
59546;PMS5003;45368;55.002;-1.592;2023-05-07T11:46:45;20;17;
59546;PMS5003;45368;55.002;-1.592;2023-05-07T11:49:13;23;20;
59546;PMS5003;45368;55.002;-1.592;2023-05-07T11:51:41;18;16;
59546;PMS5003;45368;55.002;-1.592;2023-05-07T11:54:09;20;19;
59546;PMS5003;45368;55.002;-1.592;2023-05-07T11:56:37;20;18;
59546;PMS5003;45368;55.002;-1.592;2023-05-07T11:59:04;20;19;
59546;PMS5003;45368;55.002;-1.592;2023-05-07T12:01:32;17;16;
59546;PMS5003;45368;55.002;-1.592;2023-05-07T12:04:02;19;16;
59546;PMS5003;45368;55.002;-1.592;2023-05-07T12:06:30;21;18;
59546;PMS5003;45368;55.002;-1.592;2023-05-07T12:08:57;20;19;
59546;PMS5003;45368;55.002;-1.592;2023-05-07T12:11:25;19;18;
59546;PMS5003;45368;55.002;-1.592;2023-05-07T12:13:53;22;20;
59546;PMS5003;45368;55.002;-1.592;2023-05-07T12:16:21;17;17;
59546;PMS5003;45368;55.002;-1.592;2023-05-07T12:18:48;23;20;
59546;PMS5003;45368;55.002;-1.592;2023-05-07T12:21:16;21;19;
59546;PMS5003;45368;55.002;-1.592;2023-05-07T12:23:44;22;20;
59546;PMS5003;45368;55.002;-1.592;2023-05-07T12:26:12;21;20;
59546;PMS5003;45368;55.002;-1.592;2023-05-07T12:28:40;23;20;
59546;PMS5003;45368;55.002;-1.592;2023-05-07T12:31:07;25;23;
59546;PMS5003;45368;55.002;-1.592;2023-05-07T12:33:35;20;19;
59546;PMS5003;45368;55.002;-1.592;2023-05-07T12:36:03;17;16;
59546;PMS5003;45368;55.002;-1.592;2023-05-07T12:38:36;19;17;
59546;PMS5003;45368;55.002;-1.592;2023-05-07T12:41:15;20;19;
59546;PMS5003;45368;55.002;-1.592;2023-05-07T12:43:44;20;18;
59546;PMS5003;45368;55.002;-1.592;2023-05-07T12:46:12;19;18;
59546;PMS5003;45368;55.002;-1.592;2023-05-07T12:48:43;20;19;
59546;PMS5003;45368;55.002;-1.592;2023-05-07T12:51:11;16;15;
59546;PMS5003;45368;55.002;-1.592;2023-05-07T12:53:39;17;16;
59546;PMS5003;45368;55.002;-1.592;2023-05-07T12:56:07;19;18;
59546;PMS5003;45368;55.002;-1.592;2023-05-07T12:58:34;16;16;
59546;PMS5003;45368;55.002;-1.592;2023-05-07T13:01:04;15;13;
59546;PMS5003;45368;55.002;-1.592;2023-05-07T13:03:33;17;15;
59546;PMS5003;45368;55.002;-1.592;2023-05-07T13:06:03;16;15;
59546;PMS5003;45368;55.002;-1.592;2023-05-07T13:08:33;17;16;
59546;PMS5003;45368;55.002;-1.592;2023-05-07T13:11:02;16;15;
59546;PMS5003;45368;55.002;-1.592;2023-05-07T13:13:30;18;17;
59546;PMS5003;45368;55.002;-1.592;2023-05-07T13:15:58;17;15;
59546;PMS5003;45368;55.002;-1.592;2023-05-07T13:18:26;19;18;
59546;PMS5003;45368;55.002;-1.592;2023-05-07T13:20:53;17;16;
59546;PMS5003;45368;55.002;-1.592;2023-05-07T13:23:21;15;14;
59546;PMS5003;45368;55.002;-1.592;2023-05-07T13:25:49;18;18;
59546;PMS5003;45368;55.002;-1.592;2023-05-07T13:28:16;16;14;
59546;PMS5003;45368;55.002;-1.592;2023-05-07T13:30:44;14;14;
59546;PMS5003;45368;55.002;-1.592;2023-05-07T13:33:11;18;18;
59546;PMS5003;45368;55.002;-1.592;2023-05-07T13:35:39;17;16;
59546;PMS5003;45368;55.002;-1.592;2023-05-07T13:38:06;15;15;
59546;PMS5003;45368;55.002;-1.592;2023-05-07T13:40:34;16;15;
59546;PMS5003;45368;55.002;-1.592;2023-05-07T13:43:01;16;15;
59546;PMS5003;45368;55.002;-1.592;2023-05-07T13:45:29;14;14;
59546;PMS5003;45368;55.002;-1.592;2023-05-07T13:47:57;16;13;
59546;PMS5003;45368;55.002;-1.592;2023-05-07T13:50:24;14;13;
59546;PMS5003;45368;55.002;-1.592;2023-05-07T13:52:52;12;11;
59546;PMS5003;45368;55.002;-1.592;2023-05-07T13:55:20;13;11;
59546;PMS5003;45368;55.002;-1.592;2023-05-07T13:57:53;14;13;
59546;PMS5003;45368;55.002;-1.592;2023-05-07T14:00:21;11;10;
59546;PMS5003;45368;55.002;-1.592;2023-05-07T14:02:49;14;12;
59546;PMS5003;45368;55.002;-1.592;2023-05-07T14:05:17;17;16;
59546;PMS5003;45368;55.002;-1.592;2023-05-07T14:07:44;15;14;
59546;PMS5003;45368;55.002;-1.592;2023-05-07T14:10:11;14;14;
59546;PMS5003;45368;55.002;-1.592;2023-05-07T14:12:39;17;16;
59546;PMS5003;45368;55.002;-1.592;2023-05-07T14:15:06;13;13;
59546;PMS5003;45368;55.002;-1.592;2023-05-07T14:17:34;17;15;
59546;PMS5003;45368;55.002;-1.592;2023-05-07T14:20:01;14;14;
59546;PMS5003;45368;55.002;-1.592;2023-05-07T14:22:29;17;16;
59546;PMS5003;45368;55.002;-1.592;2023-05-07T14:24:56;15;14;
59546;PMS5003;45368;55.002;-1.592;2023-05-07T14:27:23;17;14;
59546;PMS5003;45368;55.002;-1.592;2023-05-07T14:29:50;13;13;
59546;PMS5003;45368;55.002;-1.592;2023-05-07T14:32:18;18;14;
59546;PMS5003;45368;55.002;-1.592;2023-05-07T14:34:45;14;14;
59546;PMS5003;45368;55.002;-1.592;2023-05-07T14:37:13;23;19;
59546;PMS5003;45368;55.002;-1.592;2023-05-07T14:39:40;17;16;
59546;PMS5003;45368;55.002;-1.592;2023-05-07T14:42:08;16;14;
59546;PMS5003;45368;55.002;-1.592;2023-05-07T14:44:35;17;15;
59546;PMS5003;45368;55.002;-1.592;2023-05-07T14:47:02;16;14;
59546;PMS5003;45368;55.002;-1.592;2023-05-07T14:49:30;15;14;
59546;PMS5003;45368;55.002;-1.592;2023-05-07T14:51:58;16;14;
59546;PMS5003;45368;55.002;-1.592;2023-05-07T14:54:25;11;11;
59546;PMS5003;45368;55.002;-1.592;2023-05-07T14:56:53;12;11;
59546;PMS5003;45368;55.002;-1.592;2023-05-07T14:59:21;14;13;
59546;PMS5003;45368;55.002;-1.592;2023-05-07T15:01:49;11;11;
59546;PMS5003;45368;55.002;-1.592;2023-05-07T15:04:16;12;11;
59546;PMS5003;45368;55.002;-1.592;2023-05-07T15:06:44;13;12;
59546;PMS5003;45368;55.002;-1.592;2023-05-07T15:09:11;14;13;
59546;PMS5003;45368;55.002;-1.592;2023-05-07T15:11:39;13;13;
59546;PMS5003;45368;55.002;-1.592;2023-05-07T15:14:06;13;12;
59546;PMS5003;45368;55.002;-1.592;2023-05-07T15:16:34;17;16;
59546;PMS5003;45368;55.002;-1.592;2023-05-07T15:19:01;20;18;
59546;PMS5003;45368;55.002;-1.592;2023-05-07T15:21:29;12;12;
59546;PMS5003;45368;55.002;-1.592;2023-05-07T15:23:56;14;13;
59546;PMS5003;45368;55.002;-1.592;2023-05-07T15:26:23;13;13;
59546;PMS5003;45368;55.002;-1.592;2023-05-07T15:28:50;12;11;
59546;PMS5003;45368;55.002;-1.592;2023-05-07T15:31:18;13;13;
59546;PMS5003;45368;55.002;-1.592;2023-05-07T15:33:46;13;12;
59546;PMS5003;45368;55.002;-1.592;2023-05-07T15:36:13;13;13;
59546;PMS5003;45368;55.002;-1.592;2023-05-07T15:38:40;13;12;
59546;PMS5003;45368;55.002;-1.592;2023-05-07T15:41:08;12;10;
59546;PMS5003;45368;55.002;-1.592;2023-05-07T15:43:37;10;10;
59546;PMS5003;45368;55.002;-1.592;2023-05-07T15:46:11;11;11;
59546;PMS5003;45368;55.002;-1.592;2023-05-07T15:48:39;7;6;
59546;PMS5003;45368;55.002;-1.592;2023-05-07T15:51:07;11;10;
59546;PMS5003;45368;55.002;-1.592;2023-05-07T15:53:35;14;11;
59546;PMS5003;45368;55.002;-1.592;2023-05-07T15:56:02;11;10;
59546;PMS5003;45368;55.002;-1.592;2023-05-07T15:58:29;10;10;
59546;PMS5003;45368;55.002;-1.592;2023-05-07T16:00:57;11;11;
59546;PMS5003;45368;55.002;-1.592;2023-05-07T16:03:25;13;12;
59546;PMS5003;45368;55.002;-1.592;2023-05-07T16:05:53;16;14;
59546;PMS5003;45368;55.002;-1.592;2023-05-07T16:08:21;11;11;
59546;PMS5003;45368;55.002;-1.592;2023-05-07T16:10:48;13;13;